sensor_id;sensor_type;location;lat;lon;timestamp;pressure;altitude;pressure_sealevel;temperature;humidity
61740;BME280;47645;45.288;12.038;2022-07-29T00:02:18;1013.8781809243959;;;25.5552734375;54.82199306371756
61740;BME280;47645;45.288;12.038;2022-07-29T00:12:22;1013.8991949419592;;;25.840625;53.557304580904145
61740;BME280;47645;45.288;12.038;2022-07-29T00:22:22;1013.8450434084668;;;25.85078125;53.40169660013729
61740;BME280;47645;45.288;12.038;2022-07-29T00:32:23;1013.6422828121233;;;25.738671875;55.27253489176909
61740;BME280;47645;45.288;12.038;2022-07-29T00:42:24;1013.5817472445679;;;25.417578125;60.31725623727533
61740;BME280;47645;45.288;12.038;2022-07-29T00:52:25;1013.4693226028928;;;24.933203125;60.46936320236456
61740;BME280;47645;45.288;12.038;2022-07-29T01:02:27;1013.2635705392381;;;24.7396484375;57.24332745166237
61740;BME280;47645;45.288;12.038;2022-07-29T01:12:30;1013.0681462092305;;;24.795703125;56.67938726426776
61740;BME280;47645;45.288;12.038;2022-07-29T01:22:42;1013.0102122471716;;;24.8517578125;56.25501057896793
61740;BME280;47645;45.288;12.038;2022-07-29T01:32:35;1012.7464083892952;;;25.0556640625;54.95063728619566
61740;BME280;47645;45.288;12.038;2022-07-29T01:42:36;1012.7476857520405;;;25.4328125;53.58075718003232
61740;BME280;47645;45.288;12.038;2022-07-29T01:52:38;1012.6444336668864;;;25.5755859375;52.53133800796434
61740;BME280;47645;45.288;12.038;2022-07-29T02:02:35;1012.5514586442919;;;25.4533203125;52.37217809287977
61740;BME280;47645;45.288;12.038;2022-07-29T02:12:37;1012.5055715724325;;;25.4787109375;52.3320684736522
61740;BME280;47645;45.288;12.038;2022-07-29T02:22:39;1012.6718349482747;;;25.2697265625;52.963158953117855
61740;BME280;47645;45.288;12.038;2022-07-29T02:32:40;1012.6210809831855;;;25.13203125;53.652811048765365
61740;BME280;47645;45.288;12.038;2022-07-29T02:42:42;1012.5807873054755;;;25.0046875;53.261825421797
61740;BME280;47645;45.288;12.038;2022-07-29T02:52:44;1012.8429737936035;;;24.785546875;53.98963197028437
61740;BME280;47645;45.288;12.038;2022-07-29T03:02:44;1012.9805500515372;;;24.4337890625;55.784699020907816
61740;BME280;47645;45.288;12.038;2022-07-29T03:12:44;1013.0353038171944;;;24.5509765625;54.42708662379495
61740;BME280;47645;45.288;12.038;2022-07-29T03:22:47;1013.0712287677327;;;24.387890625;56.13472689280159
61740;BME280;47645;45.288;12.038;2022-07-29T03:32:46;1013.1851422634511;;;24.41328125;54.417078374894544
61740;BME280;47645;45.288;12.038;2022-07-29T03:42:49;1013.1521873790554;;;24.41328125;54.768841668874735
61740;BME280;47645;45.288;12.038;2022-07-29T03:52:49;1013.1206905674467;;;24.581640625;53.32516296797052
61740;BME280;47645;45.288;12.038;2022-07-29T04:02:51;1013.2111801869031;;;24.5662109375;53.35951534980321
61740;BME280;47645;45.288;12.038;2022-07-29T04:12:53;1013.1567810737827;;;24.387890625;53.51026239108286
61740;BME280;47645;45.288;12.038;2022-07-29T04:22:53;1013.1902780336802;;;24.097265625;55.8078725345332
61740;BME280;47645;45.288;12.038;2022-07-29T04:32:54;1013.2285633237246;;;24.3828125;53.91387934232282
61740;BME280;47645;45.288;12.038;2022-07-29T04:42:56;1013.3302550325985;;;24.31640625;54.86943388045177
61740;BME280;47645;45.288;12.038;2022-07-29T04:52:57;1013.3503436652817;;;24.3623046875;56.59490039472818
61740;BME280;47645;45.288;12.038;2022-07-29T05:02:58;1013.3614964160449;;;24.39296875;57.27104167074147
61740;BME280;47645;45.288;12.038;2022-07-29T05:12:59;1013.4995468686953;;;24.3521484375;56.06413077094739
61740;BME280;47645;45.288;12.038;2022-07-29T05:23:01;1013.6424360951885;;;24.3216796875;56.75502711795553
61740;BME280;47645;45.288;12.038;2022-07-29T05:33:02;1013.7039656908131;;;24.3369140625;56.99191717325252
61740;BME280;47645;45.288;12.038;2022-07-29T05:43:03;1013.7097897906568;;;24.3828125;54.79639363160698
61740;BME280;47645;45.288;12.038;2022-07-29T05:53:04;1013.858528713914;;;24.5763671875;54.87209258500541
61740;BME280;47645;45.288;12.038;2022-07-29T06:03:06;1013.9101062496895;;;24.4591796875;58.20098478343705
61740;BME280;47645;45.288;12.038;2022-07-29T06:13:07;1014.0828100755608;;;24.7498046875;55.754631313483145
61740;BME280;47645;45.288;12.038;2022-07-29T06:23:08;1014.1084074223871;;;25.025;57.334299302462234
61740;BME280;47645;45.288;12.038;2022-07-29T06:33:09;1014.0639548892265;;;25.0455078125;57.855321613157116
61740;BME280;47645;45.288;12.038;2022-07-29T06:43:11;1014.0848889668524;;;25.504296875;56.716479303563545
61740;BME280;47645;45.288;12.038;2022-07-29T06:53:12;1014.0755446405608;;;25.7642578125;55.0425805274234
61740;BME280;47645;45.288;12.038;2022-07-29T07:03:13;1014.0392025721692;;;26.0751953125;52.254972415934155
61740;BME280;47645;45.288;12.038;2022-07-29T07:13:15;1013.9865674347083;;;26.2791015625;52.89734897132905
61740;BME280;47645;45.288;12.038;2022-07-29T07:23:16;1013.8582872931561;;;26.533984375;52.70111634399131
61740;BME280;47645;45.288;12.038;2022-07-29T07:33:17;1013.7790421325632;;;26.9212890625;48.75599179104941
61740;BME280;47645;45.288;12.038;2022-07-29T07:43:19;1013.923058945008;;;27.3189453125;49.25103822988918
61740;BME280;47645;45.288;12.038;2022-07-29T07:53:20;1013.8246574371376;;;27.7318359375;48.746469164648076
61740;BME280;47645;45.288;12.038;2022-07-29T08:03:21;1013.8669953766315;;;28.0123046875;47.63223353997147
61740;BME280;47645;45.288;12.038;2022-07-29T08:13:24;1013.8720841392718;;;28.3333984375;46.38266821936182
61740;BME280;47645;45.288;12.038;2022-07-29T08:23:24;1014.0352721447368;;;28.6494140625;45.33525639603475
61740;BME280;47645;45.288;12.038;2022-07-29T08:33:25;1014.1159020191164;;;29.5416015625;43.68647623379213
61740;BME280;47645;45.288;12.038;2022-07-29T08:43:27;1014.0166020513633;;;29.612890625;43.1070179539053
61740;BME280;47645;45.288;12.038;2022-07-29T08:53:28;1013.988985908049;;;29.7658203125;41.607551675064336
61740;BME280;47645;45.288;12.038;2022-07-29T09:03:31;1013.8647606948018;;;29.9900390625;40.99767468939424
61740;BME280;47645;45.288;12.038;2022-07-29T09:13:31;1013.7885587975989;;;30.3265625;41.76590968372456
61740;BME280;47645;45.288;12.038;2022-07-29T09:23:32;1013.7604009631352;;;30.9078125;39.50908833264284
61740;BME280;47645;45.288;12.038;2022-07-29T09:33:34;1013.6584999260132;;;31.3001953125;37.570514025307
61740;BME280;47645;45.288;12.038;2022-07-29T09:43:36;1013.6788306569802;;;31.6978515625;39.074940044451
61740;BME280;47645;45.288;12.038;2022-07-29T09:53:38;1013.6265138809713;;;32.223046875;38.411008717053164
61740;BME280;47645;45.288;12.038;2022-07-29T10:03:50;1013.588694049364;;;32.1158203125;34.61826541007959
61740;BME280;47645;45.288;12.038;2022-07-29T10:13:42;1013.5937540439285;;;32.52890625;37.65893051096043
61740;BME280;47645;45.288;12.038;2022-07-29T10:23:43;1013.5505360246533;;;33.6861328125;32.58290882503764
61740;BME280;47645;45.288;12.038;2022-07-29T10:33:54;1013.2474860430509;;;34.6189453125;35.25245213260085
61740;BME280;47645;45.288;12.038;2022-07-29T10:43:47;1013.1071928884039;;;35.1134765625;35.518053745997264
61740;BME280;47645;45.288;12.038;2022-07-29T10:53:49;1013.1137527061127;;;36.16875;28.694931147154737
61740;BME280;47645;45.288;12.038;2022-07-29T11:03:52;1013.034742144081;;;36.9181640625;32.828188146184104
61740;BME280;47645;45.288;12.038;2022-07-29T11:13:52;1012.9998413739584;;;37.6013671875;31.431892351236822
61740;BME280;47645;45.288;12.038;2022-07-29T11:24:11;1012.9736899786601;;;38.024609375;30.52288217265516
61740;BME280;47645;45.288;12.038;2022-07-29T11:33:56;1012.9021496182515;;;38.9013671875;30.666727323177895
61740;BME280;47645;45.288;12.038;2022-07-29T11:43:59;1012.8868517205744;;;39.6712890625;27.86256206508792
61740;BME280;47645;45.288;12.038;2022-07-29T11:54:00;1012.740235159108;;;40.11484375;29.508382636100983
61740;BME280;47645;45.288;12.038;2022-07-29T12:04:03;1012.6971958208319;;;40.7572265625;28.235587459150437
61740;BME280;47645;45.288;12.038;2022-07-29T12:14:04;1012.6822586030678;;;40.884765625;27.24856362023276
61740;BME280;47645;45.288;12.038;2022-07-29T12:24:06;1012.6985499713625;;;41.001953125;28.299761595611145
61740;BME280;47645;45.288;12.038;2022-07-29T12:34:09;1012.7118959883853;;;41.1548828125;29.012044927121828
61740;BME280;47645;45.288;12.038;2022-07-29T12:44:12;1012.6100772173198;;;41.3283203125;29.091304311515593
61740;BME280;47645;45.288;12.038;2022-07-29T12:54:14;1012.4705106931899;;;41.476171875;27.010074726704325
61740;BME280;47645;45.288;12.038;2022-07-29T13:04:25;1012.4237635847836;;;41.5322265625;28.293930764835704
61740;BME280;47645;45.288;12.038;2022-07-29T13:14:31;1012.2501455642804;;;41.883984375;28.270200461085256
61740;BME280;47645;45.288;12.038;2022-07-29T13:24:20;1012.0835137198188;;;41.8380859375;28.10864270277376
61740;BME280;47645;45.288;12.038;2022-07-29T13:34:24;1011.8558125777031;;;41.669921875;27.479685850015922
61740;BME280;47645;45.288;12.038;2022-07-29T13:44:27;1011.6654406742314;;;41.593359375;29.233614424592506
61740;BME280;47645;45.288;12.038;2022-07-29T13:54:27;1011.4995615889425;;;40.390234375;29.50601164251696
61740;BME280;47645;45.288;12.038;2022-07-29T14:04:29;1011.4838381306434;;;39.9875;30.270296812816362
61740;BME280;47645;45.288;12.038;2022-07-29T14:14:32;1011.3858935932857;;;39.518359375;32.40927178127085
61740;BME280;47645;45.288;12.038;2022-07-29T14:24:33;1011.3934146613666;;;39.0951171875;32.91113777054313
61740;BME280;47645;45.288;12.038;2022-07-29T14:34:37;1011.4815418107215;;;38.4681640625;33.883443244641875
61740;BME280;47645;45.288;12.038;2022-07-29T14:44:38;1011.517538259643;;;37.423046875;34.573316118152036
61740;BME280;47645;45.288;12.038;2022-07-29T14:54:40;1011.5006049789253;;;37.2087890625;36.07527744100407
61740;BME280;47645;45.288;12.038;2022-07-29T15:04:41;1011.5151250318663;;;36.9130859375;37.13508246533897
61740;BME280;47645;45.288;12.038;2022-07-29T15:14:43;1011.4552551125587;;;36.337109375;37.71374813619201
61740;BME280;47645;45.288;12.038;2022-07-29T15:24:45;1011.3431878265571;;;35.9853515625;35.6173033865997
61740;BME280;47645;45.288;12.038;2022-07-29T15:34:47;1011.3606130554886;;;35.6232421875;38.07810283756032
61740;BME280;47645;45.288;12.038;2022-07-29T15:44:49;1011.4902607404265;;;35.1083984375;39.28224035753771
61740;BME280;47645;45.288;12.038;2022-07-29T15:54:51;1011.3423430983798;;;34.7515625;40.56529918843065
61740;BME280;47645;45.288;12.038;2022-07-29T16:04:52;1011.1104050040614;;;34.369140625;38.17356697040742
61740;BME280;47645;45.288;12.038;2022-07-29T16:14:54;1011.1657375199721;;;33.9869140625;41.9528497575434
61740;BME280;47645;45.288;12.038;2022-07-29T16:24:56;1011.2282509736137;;;33.5892578125;41.75819092126827
61740;BME280;47645;45.288;12.038;2022-07-29T16:34:58;1011.4559424728618;;;33.3189453125;42.04791325146511
61740;BME280;47645;45.288;12.038;2022-07-29T16:45:00;1011.4654652161739;;;32.824609375;42.28407685532044
61740;BME280;47645;45.288;12.038;2022-07-29T16:55:03;1011.3977611769343;;;32.4625;43.91044681010237
61740;BME280;47645;45.288;12.038;2022-07-29T17:05:04;1011.4712551840679;;;32.136328125;44.427160051826874
61740;BME280;47645;45.288;12.038;2022-07-29T17:10:08;1011.5156353279007;;;31.9935546875;45.23835149882252
61740;BME280;47645;45.288;12.038;2022-07-29T17:20:08;1011.8695872881674;;;31.5705078125;47.03346294667015
61740;BME280;47645;45.288;12.038;2022-07-29T17:30:10;1012.1706417526433;;;31.121875;47.72677523009582
61740;BME280;47645;45.288;12.038;2022-07-29T17:40:10;1012.190117323827;;;30.5865234375;48.6397348981904
61740;BME280;47645;45.288;12.038;2022-07-29T17:50:11;1012.010181527536;;;29.53125;53.01670037477064
61740;BME280;47645;45.288;12.038;2022-07-29T18:00:15;1011.8788178366734;;;28.6443359375;54.607684610537994
61740;BME280;47645;45.288;12.038;2022-07-29T18:10:14;1011.9945779653269;;;28.516796875;54.24834647843932
61740;BME280;47645;45.288;12.038;2022-07-29T18:20:16;1011.6556202225828;;;28.3333984375;53.3354365897117
61740;BME280;47645;45.288;12.038;2022-07-29T18:30:18;1011.7062331254955;;;28.51171875;52.84493611927093
61740;BME280;47645;45.288;12.038;2022-07-29T18:40:21;1011.9500931549032;;;28.6291015625;52.30611542393837
61740;BME280;47645;45.288;12.038;2022-07-29T18:50:23;1012.2830801855612;;;28.3587890625;52.246914961654525
61740;BME280;47645;45.288;12.038;2022-07-29T19:00:24;1012.300090945446;;;28.1244140625;52.80609813097043
61740;BME280;47645;45.288;12.038;2022-07-29T19:10:24;1012.3251265099613;;;27.9765625;52.685957265779614
61740;BME280;47645;45.288;12.038;2022-07-29T19:20:25;1012.6177464180503;;;27.3546875;54.9993517232118
61740;BME280;47645;45.288;12.038;2022-07-29T19:30:27;1012.663182995419;;;26.661328125;57.782832355498925
61740;BME280;47645;45.288;12.038;2022-07-29T19:40:28;1012.8414544836378;;;26.0751953125;59.819861001600486
61740;BME280;47645;45.288;12.038;2022-07-29T19:50:31;1013.0641855207673;;;26.457421875;59.35536971422876
61740;BME280;47645;45.288;12.038;2022-07-29T20:00:31;1012.9788126474169;;;26.059765625;59.27550771049552
61740;BME280;47645;45.288;12.038;2022-07-29T20:10:32;1012.9102239523918;;;25.504296875;61.585390614008475
61740;BME280;47645;45.288;12.038;2022-07-29T20:20:34;1012.7304118147259;;;25.2390625;62.48985424839658
61740;BME280;47645;45.288;12.038;2022-07-29T20:30:35;1012.9070286646321;;;25.244140625;61.815845099847266
61740;BME280;47645;45.288;12.038;2022-07-29T20:40:38;1012.8222598142787;;;26.3146484375;59.17018387925247
61740;BME280;47645;45.288;12.038;2022-07-29T20:50:38;1012.8010889217402;;;25.509375;60.3796410769288
61740;BME280;47645;45.288;12.038;2022-07-29T21:00:41;1012.8373542538856;;;25.437890625;62.470619551877846
61740;BME280;47645;45.288;12.038;2022-07-29T21:10:41;1012.8704234616114;;;25.9578125;60.925003058868626
61740;BME280;47645;45.288;12.038;2022-07-29T21:20:43;1012.8792014237438;;;25.2595703125;62.595135968863495
61740;BME280;47645;45.288;12.038;2022-07-29T21:30:44;1013.0903969823526;;;25.9681640625;57.322932821585205
61740;BME280;47645;45.288;12.038;2022-07-29T21:40:46;1013.1169854092223;;;25.3869140625;61.943927877774115
61740;BME280;47645;45.288;12.038;2022-07-29T21:50:47;1013.1420109133521;;;25.32578125;62.13116443156525
61740;BME280;47645;45.288;12.038;2022-07-29T22:00:48;1013.5582783865805;;;26.325;54.62570180370486
61740;BME280;47645;45.288;12.038;2022-07-29T22:10:49;1012.5081117066723;;;23.582421875;73.04405237861546
61740;BME280;47645;45.288;12.038;2022-07-29T22:20:50;1012.819393628727;;;24.5357421875;62.686516412873786
61740;BME280;47645;45.288;12.038;2022-07-29T22:30:51;1012.5385564214395;;;24.291015625;64.0663577069045
61740;BME280;47645;45.288;12.038;2022-07-29T22:40:52;1012.3878770100366;;;24.7599609375;61.77558314501911
61740;BME280;47645;45.288;12.038;2022-07-29T22:50:54;1012.3621399603194;;;24.6171875;60.270823295673445
61740;BME280;47645;45.288;12.038;2022-07-29T23:00:55;1012.3530950617532;;;25.121875;58.94274558563445
61740;BME280;47645;45.288;12.038;2022-07-29T23:10:57;1012.5173827434098;;;25.244140625;58.01243975382779
61740;BME280;47645;45.288;12.038;2022-07-29T23:20:58;1012.978014476085;;;25.2849609375;57.5179292419088
61740;BME280;47645;45.288;12.038;2022-07-29T23:30:59;1012.9954330191437;;;24.9435546875;57.4932463632828
61740;BME280;47645;45.288;12.038;2022-07-29T23:41:01;1013.1216265777222;;;24.8619140625;58.26946089667511
61740;BME280;47645;45.288;12.038;2022-07-29T23:51:02;1013.2477299722253;;;24.8669921875;58.921275933877126
